Latest Weather Observations for Loxton

IDS60801

Issued at 6:31 pm CDT Friday 24 March 2017 (issued every 30 minutes, with the page automatically refreshed every 10 minutes)

About weather observations | Map of weather stations | Latest weather observations for SA | Other Formats
Station Details ID: 024024 Name: LOXTON RESEARCH CENTRE Lat: -34.44 Lon: 140.60 Height: 30.1 m
Data from the previous 72 hours. | See also: Recent months at Loxton
Date/Time
CDT
Temp
°C
App
Temp
°C
Dew
Point
°C
Rel
Hum
%
Delta-T
°C
Wind Press
QNH
hPa
Press
MSL
hPa
Rain since
9am
mm
Dir  Spd
km/h
Gust
km/h
Spd
kts
Gust
kts
24/06:00pm 31.1 30.6 12.5 32 11.0 W 7 11 4 6 1011.8 1011.8 0.0
24/05:30pm 31.3 30.3 12.4 31 11.2 WNW 9 13 5 7 1011.6 1011.6 0.0
24/05:00pm 31.1 30.6 12.8 32 10.9 SW 7 13 4 7 1011.7 1011.7 0.0
24/04:30pm 31.1 31.1 12.5 32 11.0 WNW 4 9 2 5 1011.6 1011.6 0.0
24/04:00pm 30.7 30.3 12.9 33 10.6 E 7 13 4 7 1011.5 1011.5 0.0
24/03:30pm 30.4 29.0 12.2 32 10.7 E 11 22 6 12 1011.5 1011.5 0.0
24/03:00pm 30.6 29.0 12.9 33 10.5 ENE 13 17 7 9 1011.7 1011.7 0.0
24/02:30pm 30.1 29.7 14.2 38 9.6 NE 9 17 5 9 1012.3 1012.3 0.0
24/02:00pm 29.9 29.5 14.0 37 9.6 NE 9 19 5 10 1012.8 1012.7 0.0
24/01:30pm 28.9 28.0 13.7 39 9.1 ENE 11 20 6 11 1013.4 1013.3 0.0
24/01:00pm 28.7 28.5 14.7 42 8.5 NE 9 17 5 9 1013.9 1013.8 0.0
24/12:30pm 27.6 27.0 14.7 45 7.8 ENE 11 17 6 9 1014.5 1014.4 0.0
24/12:00pm 27.4 25.1 14.2 44 7.9 ENE 19 28 10 15 1014.9 1014.8 0.0
24/11:30am 26.7 25.0 14.7 47 7.2 ENE 17 24 9 13 1015.6 1015.5 0.0
24/11:00am 25.3 23.2 14.8 52 6.3 E 19 24 10 13 1015.5 1015.4 0.0
24/10:30am 24.7 22.6 14.8 54 5.9 E 19 24 10 13 1015.8 1015.7 0.0
24/10:00am 24.6 22.7 15.3 56 5.6 E 19 24 10 13 1016.0 1015.9 0.0
24/09:30am 22.6 21.0 15.0 62 4.5 ESE 17 22 9 12 1016.1 1016.0 0.0
24/09:00am 21.3 19.6 14.7 66 3.9 ESE 17 24 9 13 1015.9 1015.8 0.0
24/08:30am 19.7 17.9 14.4 71 3.1 SE 17 22 9 12 1016.0 1015.9 0.0
24/08:00am 18.1 17.0 14.3 78 2.2 SE 13 17 7 9 1015.7 1015.6 0.0
24/07:30am 17.5 16.8 14.2 81 1.9 SE 11 13 6 7 1015.5 1015.4 0.0
24/07:00am 17.5 16.7 14.0 80 2.0 ESE 11 15 6 8 1015.1 1015.0 0.0
24/06:30am 17.4 17.0 14.1 81 1.9 SE 9 11 5 6 1015.4 1015.3 0.0
24/06:00am 17.9 16.7 14.1 78 2.2 SE 13 15 7 8 1015.2 1015.1 0.0
24/05:30am 18.3 17.5 13.9 75 2.5 SE 11 15 6 8 1015.1 1015.0 0.0
24/05:00am 18.2 16.9 13.6 74 2.6 ESE 13 15 7 8 1014.7 1014.6 0.0
24/04:30am 18.9 18.0 13.8 72 2.9 SE 11 15 6 8 1014.9 1014.8 0.0
24/04:00am 19.5 18.2 13.7 69 3.3 SE 13 19 7 10 1014.9 1014.8 0.0
24/03:30am 20.0 18.3 13.5 66 3.7 SE 15 20 8 11 1015.1 1015.0 0.0
24/03:00am 20.2 18.4 13.4 65 3.9 SE 15 19 8 10 1015.2 1015.1 0.0
24/02:30am 20.3 18.9 13.3 64 4.0 SE 13 17 7 9 1015.3 1015.2 0.0
24/02:00am 20.9 19.0 13.0 60 4.5 SE 15 20 8 11 1015.2 1015.1 0.0
24/01:30am 21.3 19.4 13.1 59 4.7 SE 15 19 8 10 1015.5 1015.4 0.0
24/01:00am 21.7 20.2 13.2 58 4.9 SE 13 19 7 10 1015.7 1015.6 0.0
24/12:30am 22.1 20.3 13.2 57 5.1 SE 15 20 8 11 1015.7 1015.6 0.0
24/12:00am 22.6 20.4 13.2 55 5.4 SE 17 20 9 11 1015.7 1015.6 0.0
 
Date/Time
CDT
Temp
°C
App
Temp
°C
Dew
Point
°C
Rel
Hum
%
Delta-T
°C
Wind Press
QNH
hPa
Press
MSL
hPa
Rain since
9am
mm
Dir  Spd
km/h
Gust
km/h
Spd
kts
Gust
kts
23/11:30pm 22.6 20.4 13.2 55 5.4 SE 17 22 9 12 1016.0 1015.9 0.0
23/11:00pm 21.1 20.5 13.4 61 4.4 SE 9 11 5 6 1015.9 1015.8 0.0
23/10:30pm 21.4 20.8 13.6 61 4.5 SE 9 13 5 7 1015.9 1015.8 0.0
23/10:00pm 22.1 21.1 13.4 57 5.0 SE 11 11 6 6 1015.5 1015.4 0.0
23/09:30pm 23.0 22.3 13.3 54 5.6 SE 9 11 5 6 1015.3 1015.2 0.0
23/09:00pm 24.0 22.6 13.5 52 6.1 SE 13 15 7 8 1015.0 1014.9 0.0
23/08:30pm 24.3 23.8 13.7 51 6.2 SE 9 13 5 7 1014.8 1014.7 0.0
23/08:00pm 25.3 24.5 14.0 49 6.7 SE 11 13 6 7 1014.4 1014.3 0.0
23/07:30pm 26.4 25.5 13.7 45 7.5 SE 11 13 6 7 1014.3 1014.2 0.0
23/07:00pm 28.0 26.6 13.5 41 8.6 SE 13 19 7 10 1014.0 1013.9 0.0
23/06:30pm 29.4 28.3 13.2 37 9.6 SE 11 17 6 9 1013.8 1013.7 0.0
23/06:00pm 30.1 28.5 12.9 34 10.2 SE 13 17 7 9 1013.8 1013.7 0.0
23/05:30pm 30.2 29.0 12.8 34 10.3 SE 11 17 6 9 1013.7 1013.6 0.0
23/05:00pm 30.3 28.7 12.7 34 10.4 SE 13 20 7 11 1013.6 1013.5 0.0
23/04:30pm 30.1 28.4 12.4 33 10.4 SE 13 20 7 11 1013.6 1013.5 0.0
23/04:00pm 29.9 28.7 12.8 35 10.1 ESE 11 20 6 11 1013.7 1013.6 0.0
23/03:30pm 29.4 27.0 12.8 36 9.8 SE 17 24 9 13 1014.0 1013.9 0.0
23/03:00pm 29.0 29.1 13.8 39 9.1 ESE 6 13 3 7 1014.4 1014.3 0.0
23/02:30pm 28.3 27.3 13.3 39 8.9 E 11 20 6 11 1014.6 1014.5 0.0
23/02:00pm 27.9 26.8 13.1 40 8.7 SSE 11 20 6 11 1015.3 1015.2 0.0
23/01:30pm 27.3 26.2 13.0 41 8.4 SSW 11 20 6 11 1016.0 1015.9 0.0
23/01:00pm 26.2 24.7 13.2 44 7.6 S 13 19 7 10 1016.7 1016.6 0.0
23/12:30pm 25.3 23.9 13.3 47 7.0 SE 13 24 7 13 1016.7 1016.6 0.0
23/12:00pm 24.8 23.1 13.5 49 6.6 SE 15 20 8 11 1017.0 1016.9 0.0
23/11:30am 23.4 21.6 13.4 53 5.8 SE 15 20 8 11 1017.4 1017.3 0.0
23/11:00am 22.8 21.4 13.5 55 5.4 SE 13 20 7 11 1017.9 1017.8 0.0
23/10:30am 21.6 19.8 13.2 59 4.8 SE 15 20 8 11 1017.9 1017.8 0.0
23/10:00am 20.7 18.5 13.4 63 4.2 SE 17 22 9 12 1017.7 1017.6 0.0
23/09:30am 19.5 17.0 13.5 68 3.4 SE 19 24 10 13 1017.6 1017.5 0.0
23/09:00am 18.2 15.5 13.6 74 2.6 SSE 20 28 11 15 1017.3 1017.2 0.0
23/08:30am 17.0 15.3 13.6 80 1.9 SSE 15 22 8 12 1017.4 1017.3 0.0
23/08:00am 15.6 14.2 13.5 87 1.2 SSE 13 17 7 9 1016.9 1016.8 0.0
23/07:30am 14.8 13.8 13.4 91 0.8 S 11 15 6 8 1016.9 1016.8 0.0
23/07:00am 14.9 13.5 13.5 91 0.8 S 13 17 7 9 1016.9 1016.8 0.0
23/06:30am 15.1 14.1 13.5 90 0.9 SSW 11 17 6 9 1016.7 1016.6 0.0
23/06:00am 15.2 13.9 13.6 90 0.9 S 13 19 7 10 1016.3 1016.2 0.0
23/05:30am 15.5 13.8 13.7 89 1.0 S 15 20 8 11 1016.1 1016.0 0.0
23/05:00am 16.0 14.7 13.7 86 1.3 S 13 20 7 11 1016.1 1016.0 0.0
23/04:30am 16.2 15.4 13.9 86 1.3 SSW 11 15 6 8 1016.1 1016.0 0.0
23/04:00am 16.7 15.4 13.7 82 1.7 SSE 13 15 7 8 1015.8 1015.7 0.0
23/03:30am 17.0 15.7 13.8 81 1.8 SSE 13 17 7 9 1015.9 1015.8 0.0
23/03:00am 17.5 16.2 13.6 78 2.2 SSE 13 17 7 9 1015.9 1015.8 0.0
23/02:30am 17.8 16.5 13.6 76 2.4 SSE 13 15 7 8 1015.9 1015.8 0.0
23/02:00am 18.2 16.9 13.8 75 2.5 SSE 13 19 7 10 1016.1 1016.0 0.0
23/01:30am 18.5 17.7 14.1 75 2.5 SSE 11 15 6 8 1016.2 1016.1 0.0
23/01:00am 18.9 17.5 14.4 75 2.6 SSE 15 19 8 10 1016.3 1016.2 0.0
23/12:30am 19.3 17.9 14.5 74 2.8 SSE 15 20 8 11 1016.5 1016.4 0.0
23/12:00am 19.5 18.3 14.1 71 3.1 SSE 13 20 7 11 1016.7 1016.6 0.0
 
Date/Time
CDT
Temp
°C
App
Temp
°C
Dew
Point
°C
Rel
Hum
%
Delta-T
°C
Wind Press
QNH
hPa
Press
MSL
hPa
Rain since
9am
mm
Dir  Spd
km/h
Gust
km/h
Spd
kts
Gust
kts
22/11:30pm 19.4 18.5 13.6 69 3.3 SSE 11 17 6 9 1016.8 1016.7 0.0
22/11:00pm 19.9 19.3 13.6 67 3.6 S 9 15 5 8 1016.8 1016.7 0.0
22/10:30pm 20.6 19.6 13.4 63 4.1 S 11 13 6 7 1016.9 1016.8 0.0
22/10:00pm 21.0 19.3 13.5 62 4.3 SSE 15 17 8 9 1016.6 1016.5 0.0
22/09:30pm 21.7 19.8 13.1 58 4.9 SSE 15 20 8 11 1016.4 1016.3 0.0
22/09:00pm 22.2 20.3 13.1 56 5.2 SSE 15 20 8 11 1015.9 1015.8 0.0
22/08:30pm 23.0 20.4 13.3 54 5.6 SSE 19 26 10 14 1015.3 1015.2 0.0
22/08:00pm 24.1 21.0 13.3 51 6.3 SSE 22 33 12 18 1014.8 1014.7 0.0
22/07:30pm 24.7 21.3 13.6 50 6.5 SSE 24 37 13 20 1014.4 1014.3 0.0
22/07:00pm 25.5 23.5 13.8 48 6.9 S 17 28 9 15 1014.0 1013.9 0.0
22/06:30pm 25.5 22.5 13.6 47 7.0 SSE 22 33 12 18 1013.9 1013.8 0.0
22/06:00pm 26.6 24.1 13.6 44 7.7 S 19 35 10 19 1013.7 1013.6 0.0
22/05:30pm 25.7 23.1 13.9 48 7.0 S 20 30 11 16 1013.6 1013.5 0.0
22/05:00pm 26.7 23.3 13.7 44 7.7 S 24 33 13 18 1013.6 1013.5 0.0
22/04:30pm 26.2 23.3 14.1 47 7.2 S 22 33 12 18 1013.5 1013.4 0.0
22/04:00pm 26.8 24.3 14.0 45 7.6 S 20 30 11 16 1013.6 1013.5 0.0
22/03:30pm 26.6 24.2 14.4 47 7.3 S 20 32 11 17 1013.7 1013.6 0.0
22/03:00pm 26.4 23.9 14.1 46 7.3 S 20 28 11 15 1013.8 1013.7 0.0
22/02:30pm 26.4 24.0 14.3 47 7.2 S 20 30 11 16 1013.9 1013.8 0.0
22/02:00pm 26.1 23.9 14.8 49 6.8 S 20 28 11 15 1014.2 1014.1 0.0
22/01:30pm 25.6 23.5 15.2 52 6.3 S 20 28 11 15 1014.5 1014.4 0.0
22/01:00pm 26.1 24.6 15.4 51 6.5 SSE 17 28 9 15 1014.8 1014.7 0.0
22/12:30pm 25.8 23.8 15.4 52 6.3 SSE 20 30 11 16 1015.0 1014.9 0.0
22/12:00pm 24.1 23.1 15.7 59 5.1 S 15 24 8 13 1015.4 1015.3 0.0
22/11:30am 23.4 22.1 15.8 62 4.6 SSE 17 26 9 14 1015.6 1015.5 0.0
22/11:00am 21.5 19.5 15.6 69 3.5 SSE 20 28 11 15 1015.8 1015.7 0.0
22/10:30am 21.1 19.3 15.9 72 3.1 SSE 20 32 11 17 1015.8 1015.7 0.0
22/10:00am 21.2 19.7 16.2 73 3.0 SSE 19 33 10 18 1015.7 1015.6 0.0
22/09:30am 20.8 19.0 16.1 74 2.8 SSE 20 32 11 17 1015.5 1015.4 0.0
22/09:00am 20.0 18.3 16.2 79 2.3 SSE 20 32 11 17 1015.3 1015.2 0.0
22/08:30am 19.5 17.1 16.3 82 1.9 SSE 24 35 13 19 1015.0 1014.9 0.0
22/08:00am 19.4 17.8 16.6 84 1.7 SSE 20 30 11 16 1014.6 1014.5 0.0
22/07:30am 19.0 17.7 16.8 87 1.3 SSE 19 28 10 15 1014.3 1014.2 0.0
22/07:00am 18.9 17.5 16.6 86 1.4 S 19 26 10 14 1013.8 1013.7 0.0
22/06:30am 18.9 16.8 16.2 84 1.6 S 22 32 12 17 1013.3 1013.2 0.0
22/06:00am 19.1 17.5 15.9 82 1.9 S 19 28 10 15 1012.9 1012.8 0.0
22/05:30am 19.0 18.2 16.0 83 1.8 S 15 24 8 13 1012.3 1012.3 0.0
22/05:00am 19.0 17.9 16.3 84 1.6 S 17 24 9 13 1012.0 1012.0 0.0
22/04:30am 19.1 18.8 16.4 84 1.6 S 13 22 7 12 1011.9 1011.9 0.0
22/04:00am 19.4 18.4 16.6 84 1.7 S 17 30 9 16 1011.8 1011.8 0.0
22/03:30am 19.9 18.5 16.6 81 2.0 S 19 28 10 15 1011.9 1011.9 0.0
22/03:00am 20.3 18.6 17.2 82 1.9 S 22 32 12 17 1011.8 1011.8 0.0
22/02:30am 20.4 18.9 17.6 84 1.7 S 22 32 12 17 1011.6 1011.6 0.0
22/02:00am 20.8 19.7 17.7 82 1.9 S 20 28 11 15 1011.4 1011.4 0.0
22/01:30am 21.4 20.4 17.9 80 2.2 SSE 20 28 11 15 1011.6 1011.6 0.0
22/01:00am 21.9 21.1 17.9 78 2.5 SSE 19 26 10 14 1011.5 1011.5 0.0
22/12:30am 22.5 22.3 18.4 77 2.6 S 17 22 9 12 1011.5 1011.5 0.0
22/12:00am 23.3 23.0 18.2 73 3.2 SSE 17 20 9 11 1011.4 1011.4 0.0
 
Date/Time
CDT
Temp
°C
App
Temp
°C
Dew
Point
°C
Rel
Hum
%
Delta-T
°C
Wind Press
QNH
hPa
Press
MSL
hPa
Rain since
9am
mm
Dir  Spd
km/h
Gust
km/h
Spd
kts
Gust
kts
21/11:30pm 23.9 23.2 18.2 70 3.6 SSE 19 28 10 15 1011.1 1011.1 0.0
21/11:00pm 24.0 23.2 18.5 71 3.5 SSE 20 28 11 15 1011.1 1011.1 0.0
21/10:30pm 24.4 23.8 18.4 69 3.8 SSE 19 26 10 14 1010.8 1010.8 0.0
21/10:00pm 25.4 24.9 17.8 62 4.8 SSE 17 26 9 14 1010.3 1010.3 0.0
21/09:30pm 26.5 25.0 17.6 58 5.6 SSE 22 32 12 17 1009.7 1009.6 0.0
21/09:00pm 26.8 25.3 17.8 57 5.7 SSE 22 33 12 18 1009.3 1009.2 0.0
21/08:30pm 27.8 26.0 17.9 54 6.3 SSE 24 39 13 21 1008.5 1008.4 0.0
21/08:00pm 30.0 28.9 17.2 46 8.1 SSE 19 28 10 15 1007.8 1007.7 0.0
21/07:30pm 31.2 29.4 16.0 40 9.5 SSW 20 32 11 17 1007.2 1007.1 0.0
21/07:00pm 32.6 31.5 13.2 30 11.7 WSW 11 17 6 9 1006.8 1006.7 0.0

Other Formats:

Comma delimited format used in spreadsheet applications
http://www.bom.gov.au/fwo/IDS60801/IDS60801.94682.axf

JavaScript Object Notation format (JSON) in row-major order
http://www.bom.gov.au/fwo/IDS60801/IDS60801.94682.json